createdAt,value
2023-03-03T00:00:33.229Z,72.60
2023-03-03T00:06:41.234Z,72.50
2023-03-03T00:20:39.219Z,72.40
2023-03-03T00:23:09.149Z,72.30
2023-03-03T00:25:35.876Z,72.10
2023-03-03T00:28:25.070Z,72.30
2023-03-03T00:31:00.028Z,72.50
2023-03-03T00:33:32.884Z,72.40
2023-03-03T01:06:38.329Z,72.40
2023-03-03T01:09:04.946Z,72.20
2023-03-03T01:11:31.570Z,72.40
2023-03-03T01:13:58.224Z,72.40
2023-03-03T01:24:06.926Z,72.30
2023-03-03T01:26:33.945Z,72.10
2023-03-03T01:29:00.609Z,72.10
2023-03-03T01:31:27.320Z,72.20
2023-03-03T01:33:53.971Z,72.10
2023-03-03T01:44:02.911Z,72.00
2023-03-03T01:46:35.679Z,71.90
2023-03-03T01:49:11.108Z,72.10
2023-03-03T02:22:54.016Z,72.40
2023-03-03T02:25:41.237Z,72.40
2023-03-03T02:28:08.421Z,72.40
2023-03-03T03:05:05.676Z,72.00
2023-03-03T03:07:32.403Z,71.80
2023-03-03T03:09:59.281Z,71.90
2023-03-03T03:12:25.941Z,71.90
2023-03-03T03:14:52.624Z,71.90
2023-03-03T03:17:19.216Z,71.80
2023-03-03T05:48:10.419Z,72.40
2023-03-03T05:50:38.114Z,72.40
2023-03-03T05:53:04.840Z,72.40
2023-03-03T05:55:31.690Z,72.40
2023-03-03T05:57:58.347Z,72.40
2023-03-03T06:00:25.043Z,72.30
2023-03-03T06:06:42.529Z,72.20
2023-03-03T06:09:09.119Z,72.00
2023-03-03T06:11:37.445Z,72.00
2023-03-03T06:14:04.079Z,72.00
2023-03-03T06:16:30.838Z,72.00
2023-03-03T06:18:57.608Z,72.00
2023-03-03T06:48:22.300Z,72.00
2023-03-03T06:50:49.190Z,71.90
2023-03-03T06:53:18.261Z,72.10
2023-03-03T06:55:45.701Z,72.10
2023-03-03T07:59:21.058Z,72.50
2023-03-03T08:01:50.798Z,72.70
2023-03-03T08:04:21.742Z,72.50
2023-03-03T08:06:49.814Z,72.70
2023-03-03T08:09:19.217Z,72.70
2023-03-03T08:19:30.218Z,72.50
2023-03-03T08:22:09.308Z,72.20
2023-03-03T08:24:38.387Z,72.30
2023-03-03T08:27:05.175Z,72.20
2023-03-03T08:29:31.851Z,72.20
2023-03-03T08:31:58.861Z,72.30
2023-03-03T08:34:25.638Z,72.20
2023-03-03T08:36:52.265Z,72.20
2023-03-03T09:06:16.892Z,72.40
2023-03-03T09:08:43.539Z,72.40
2023-03-03T09:11:13.058Z,72.30
2023-03-03T09:13:39.814Z,72.30
2023-03-03T09:16:16.213Z,72.20
2023-03-03T09:26:31.141Z,72.30
2023-03-03T10:10:35.930Z,72.20
2023-03-03T10:13:21.548Z,72.60
2023-03-03T10:16:06.290Z,72.70
2023-03-03T10:18:42.190Z,72.80
2023-03-03T11:28:05.153Z,73.40
2023-03-03T11:30:35.601Z,73.30
2023-03-03T11:33:22.756Z,72.80
2023-03-03T11:36:05.003Z,73.30
2023-03-03T11:38:48.342Z,73.40
2023-03-03T13:07:43.227Z,71.80
2023-03-03T13:10:37.990Z,71.10
2023-03-03T13:13:17.677Z,70.20
2023-03-03T13:16:05.567Z,68.90
2023-03-03T13:22:44.154Z,71.80
2023-03-03T13:25:57.829Z,69.40
2023-03-03T13:59:39.857Z,68.70
2023-03-03T14:02:28.697Z,70.00
2023-03-03T14:05:06.109Z,69.80
2023-03-03T14:07:39.060Z,68.00
2023-03-03T14:10:25.925Z,68.30
2023-03-03T14:12:59.240Z,69.50
2023-03-03T14:15:33.629Z,68.70
2023-03-03T14:33:43.953Z,70.90
2023-03-03T14:36:13.393Z,71.00
2023-03-03T14:38:43.594Z,69.70
2023-03-03T14:41:20.128Z,69.40
2023-03-03T16:33:47.403Z,72.20
2023-03-03T16:36:33.749Z,71.90
2023-03-03T16:39:20.285Z,71.10
2023-03-03T16:42:32.672Z,70.90
2023-03-03T16:45:09.286Z,71.80
2023-03-03T16:47:45.532Z,71.10
2023-03-03T16:50:41.108Z,71.10
2023-03-03T16:57:34.873Z,71.00
2023-03-03T17:00:27.012Z,71.00
2023-03-03T17:03:12.188Z,71.80
2023-03-03T17:06:02.770Z,71.10
2023-03-03T17:09:31.486Z,72.60
2023-03-03T17:12:34.071Z,71.00
2023-03-03T17:15:39.969Z,71.50
2023-03-03T17:18:24.805Z,71.40
2023-03-03T17:20:57.692Z,72.50
2023-03-03T17:35:37.545Z,71.50
2023-03-03T17:38:22.937Z,72.10
2023-03-03T17:41:11.102Z,72.50
2023-03-03T17:44:07.597Z,72.10
2023-03-03T17:46:42.081Z,72.00
2023-03-03T17:49:53.361Z,72.10
2023-03-03T18:04:45.973Z,72.00
2023-03-03T20:04:16.807Z,72.30
2023-03-03T20:07:17.770Z,72.40
2023-03-03T20:10:16.300Z,71.90
2023-03-03T20:12:56.549Z,72.10
2023-03-03T20:15:36.944Z,72.40
2023-03-03T20:29:14.522Z,72.30
2023-03-03T22:53:01.253Z,73.20
2023-03-03T22:55:29.185Z,73.10
2023-03-03T22:57:55.784Z,73.10
2023-03-03T23:11:56.020Z,72.80
2023-03-03T23:14:22.767Z,72.80
2023-03-03T23:16:49.568Z,72.90
2023-03-03T23:19:16.264Z,72.80
2023-03-03T23:21:43.018Z,72.90
2023-03-03T23:24:11.055Z,72.90
2023-03-03T23:26:38.206Z,72.70
2023-03-03T23:29:05.583Z,72.70
2023-03-03T23:31:32.353Z,72.80
